Impacts TAF Board
For situational awareness. Not to be used for flight planning purposes.
IDs:

KFLG - Flagstaff/Pulliam Ar, AZ, US

Issued at 1720 UTC 02 Aug 2021
Updated at 2142 UTC 02 Aug 2021
Potential Impact None Slight Moderate High
Time2057Z 02/22Z 02/23Z 03/00Z 03/01Z 03/02Z 03/03Z 03/04Z 03/05Z 03/06Z 03/07Z 03/08Z 03/09Z 03/10Z>>
Type OBS PRVL PRVL PRVL PRVL PRVL PRVL PRVL PRVL PRVL PRVL PRVL PRVL PRVL
VIS 10 >6 >6 >6 >6 >6 >6 >6 >6 >6 >6 >6 >6 >6
CIG -- 110 -- -- -- -- -- -- -- -- -- -- -- --
Cover CLR BKN SCT SCT SCT SCT SCT SCT SCT SCT SCT SCT SCT SCT
FltCat VFR VFR VFR VFR VFR VFR VFR VFR VFR VFR VFR VFR VFR VFR
WX -- VCTS -- -- -- -- -- -- -- -- -- -- -- --
WDir VRB 290 300 300 300 300 300 300 300 300 300 300 300 300
WSpd 4 7 6 6 6 6 6 6 6 6 6 6 6 6
WGst -- -- -- -- -- -- -- -- -- -- -- -- -- --
Raw TAF
KFLG 021720Z 0218/0318 VRB05KT P6SM FEW060 SCT250
  FM021900 29007KT P6SM VCTS SCT070CB BKN110
  FM022300 30006KT P6SM FEW100 SCT250


Raw METAR
KFLG 022057Z VRB04KT 10SM CLR 28/06 A3041 RMK AO2 SLP188 T02780061 56013
KFLG 021957Z VRB06KT 10SM SCT060 27/06 A3042 RMK AO2 SLP192 T02670056
KFLG 021857Z 22011KT 10SM BKN080 26/08 A3043 RMK AO2 SLP198 T02610078

METAR Board
Radar Display
Forecast Discussion
For situational awareness. Not to be used for flight planning purposes.